Time;durP1;ratioP1;P1;durP2;ratioP2;P2;SDS_P1;SDS_P2;PMS_P1;PMS_P2;Temp;Humidity;BMP_temperature;BMP_pressure;BME280_temperature;BME280_humidity;BME280_pressure;Samples;Min_cycle;Max_cycle;Signal;HPM_P1;HPM_P2
2024/01/22 00:01:45;;;;;;;4.03;2.47;;;7.30;99.90;;;-144.05;71.29;56963.53;5096610;28;20091;-79
2024/01/22 00:04:11;;;;;;;6.20;2.10;;;;;;;-144.05;71.49;56991.13;5103146;28;20443;-78
2024/01/22 00:06:40;;;;;;;5.20;2.33;;;7.00;99.90;;;-144.05;71.14;56984.78;5108009;28;20027;-77
2024/01/22 00:09:06;;;;;;;3.15;2.13;;;;;;;-144.05;72.28;56967.78;5108165;28;20020;-78
2024/01/22 00:11:33;;;;;;;4.75;2.65;;;;;;;-144.05;72.41;56997.50;5106442;28;20083;-79
2024/01/22 00:14:00;;;;;;;4.20;2.00;;;;;;;-144.05;72.51;56993.25;5105601;28;20028;-79
2024/01/22 00:16:26;;;;;;;6.70;3.00;;;;;;;-144.05;72.40;56965.66;5109793;28;20043;-79
2024/01/22 00:18:54;;;;;;;4.80;2.00;;;;;;;-144.05;72.78;56984.78;5090085;28;20056;-78
2024/01/22 00:21:20;;;;;;;6.20;2.30;;;;;;;-144.05;72.93;56986.91;5106352;28;20035;-79
2024/01/22 00:23:46;;;;;;;5.93;2.22;;;;;;;-144.05;73.29;57001.75;5107566;28;20024;-79
2024/01/22 00:26:14;;;;;;;3.45;1.92;;;;;;;-144.05;73.12;56997.50;5106757;28;20028;-78
2024/01/22 00:28:41;;;;;;;2.90;2.08;;;7.30;99.90;;;-144.05;72.66;56965.66;5097489;28;20072;-78
2024/01/22 00:31:08;;;;;;;3.65;1.77;;;;;;;-144.05;72.53;56986.91;5103800;28;20122;-78
2024/01/22 00:33:35;;;;;;;5.22;1.90;;;;;;;-144.05;72.48;56967.78;5103438;28;20024;-76
2024/01/22 00:36:03;;;;;;;5.63;2.17;;;7.80;99.90;;;-144.05;73.22;56997.50;5111000;28;20114;-79
2024/01/22 00:38:29;;;;;;;6.65;2.17;;;;;;;-144.05;73.72;56999.63;5093066;28;20024;-80
2024/01/22 00:40:56;;;;;;;4.30;2.05;;;;;;;-144.05;72.76;56974.16;5099330;28;20022;-79
2024/01/22 00:43:22;;;;;;;5.47;2.80;;;;;;;-144.05;72.80;56978.41;5092813;28;20066;-79
2024/01/22 00:45:49;;;;;;;4.68;2.10;;;;;;;-144.05;72.47;56978.41;5093001;28;20028;-79
2024/01/22 00:48:16;;;;;;;5.90;2.13;;;;;;;-144.05;73.09;56957.16;5092831;28;20111;-78
2024/01/22 00:50:42;;;;;;;5.20;2.17;;;;;;;-144.05;72.49;56976.28;5093193;28;20537;-80
2024/01/22 00:53:08;;;;;;;3.72;1.50;;;;;;;-144.05;72.44;56974.16;5093932;28;20028;-76
2024/01/22 00:55:34;;;;;;;4.40;2.00;;;;;;;-144.05;73.23;56993.25;5091638;28;20020;-78
2024/01/22 00:58:01;;;;;;;4.38;1.98;;;;;;;-144.05;73.34;56976.28;5091222;28;20034;-73
2024/01/22 01:00:27;;;;;;;3.97;1.80;;;;;;;-144.05;71.50;56946.53;5093006;28;20052;-78
2024/01/22 01:02:54;;;;;;;4.22;2.00;;;;;;;-144.05;71.30;56974.16;5093557;28;20414;-78
2024/01/22 01:05:20;;;;;;;4.72;2.10;;;;;;;-144.05;72.39;56976.28;5092303;28;20036;-78
2024/01/22 01:07:46;;;;;;;3.08;1.83;;;;;;;-144.05;72.54;56952.91;5092321;28;20028;-79
2024/01/22 01:10:13;;;;;;;6.15;1.67;;;;;;;-144.05;72.52;56969.91;5092213;28;20024;-76
2024/01/22 01:12:39;;;;;;;3.72;1.95;;;;;;;-144.05;72.65;56963.53;5092990;28;20034;-76
2024/01/22 01:15:07;;;;;;;4.28;1.77;;;8.40;99.90;;;-144.05;73.07;56978.41;5092969;28;20024;-79
2024/01/22 01:17:33;;;;;;;4.95;2.08;;;;;;;-144.05;73.26;56961.41;5091722;28;20039;-77
2024/01/22 01:19:59;;;;;;;6.68;1.70;;;;;;;-144.05;73.05;56978.41;5098595;28;20084;-79
2024/01/22 01:22:25;;;;;;;6.40;1.88;;;;;;;-144.05;73.03;56984.78;5103197;28;20369;-77
2024/01/22 01:24:52;;;;;;;6.32;1.92;;;;;;;-144.05;73.22;56972.03;5105848;28;20016;-77
2024/01/22 01:27:18;;;;;;;5.07;1.80;;;;;;;-144.05;73.00;56959.28;5099644;28;20028;-80
2024/01/22 01:29:44;;;;;;;4.25;2.10;;;;;;;-144.05;73.33;56980.53;5102321;28;20028;-80
2024/01/22 01:32:11;;;;;;;4.97;1.92;;;;;;;-144.05;72.99;56982.66;5105241;28;20103;-81
2024/01/22 01:34:37;;;;;;;4.60;1.92;;;;;;;-144.05;72.86;56948.66;5105209;28;20069;-80
2024/01/22 01:37:04;;;;;;;6.85;2.20;;;8.20;99.90;;;-144.05;72.33;56961.41;5093247;28;20035;-76
2024/01/22 01:39:30;;;;;;;7.30;2.10;;;;;;;-144.05;72.84;56993.25;5099886;28;20032;-79
2024/01/22 01:41:57;;;;;;;4.93;1.90;;;;;;;-144.05;73.01;56972.03;5093965;28;20030;-80
2024/01/22 01:44:50;;;;;;;4.13;1.92;;;7.30;99.90;;;-144.05;72.77;56997.50;5092703;28;20030;-78
2024/01/22 01:47:17;;;;;;;5.20;1.85;;;;;;;-144.05;72.24;56965.66;5100903;28;20024;-79
2024/01/22 01:49:46;;;;;;;4.30;1.80;;;8.30;99.90;;;-144.05;71.80;56938.03;5092961;28;20038;-78
2024/01/22 01:52:14;;;;;;;3.92;1.77;;;8.30;99.90;;;-144.05;72.26;56965.66;5098723;28;20181;-79
2024/01/22 01:54:44;;;;;;;2.33;1.27;;;8.40;99.90;;;-144.05;71.57;56969.91;5096580;28;20086;-79
2024/01/22 01:57:12;;;;;;;3.63;1.40;;;;;;;-144.05;71.74;56967.78;5094503;28;20507;-79
2024/01/22 01:59:43;;;;;;;4.07;1.77;;;8.20;99.90;;;-144.05;71.48;56948.66;5097000;28;20125;-78
2024/01/22 02:02:09;;;;;;;4.90;1.55;;;;;;;-144.05;71.52;56952.91;5098760;28;20527;-79
2024/01/22 02:04:36;;;;;;;4.75;1.55;;;9.60;99.90;;;-144.05;70.91;56965.66;5095525;28;20032;-77
2024/01/22 02:07:03;;;;;;;2.83;1.55;;;;;;;-144.05;71.01;56969.91;5096958;28;20102;-80
2024/01/22 02:09:48;;;;;;;4.75;1.52;;;8.50;99.90;;;-144.05;70.88;56946.53;5096197;28;20028;-79
2024/01/22 02:12:19;;;;;;;2.45;1.20;;;8.60;99.90;;;-144.05;70.67;56978.41;5108390;28;20492;-79
2024/01/22 02:14:46;;;;;;;3.13;1.45;;;8.70;99.90;;;-144.05;70.49;56965.66;5091705;28;20032;-79
2024/01/22 02:17:14;;;;;;;3.47;1.45;;;9.10;99.90;;;-144.05;70.47;56980.53;5099163;28;20032;-80
2024/01/22 02:19:41;;;;;;;2.00;1.30;;;;;;;-144.05;70.66;56940.16;5097620;28;20347;-79
2024/01/22 02:22:07;;;;;;;5.40;1.40;;;;;;;-144.05;70.14;56967.78;5098529;28;20119;-78
2024/01/22 02:24:34;;;;;;;2.10;1.13;;;;;;;-144.05;70.68;56938.03;5097885;28;20473;-76
2024/01/22 02:27:00;;;;;;;4.78;1.23;;;;;;;-144.05;70.37;56972.03;5113880;28;20035;-77
2024/01/22 02:29:26;;;;;;;2.65;1.35;;;;;;;-144.05;70.54;56963.53;5104427;28;20061;-79
2024/01/22 02:31:55;;;;;;;2.33;1.30;;;;;;;-144.05;70.27;56955.03;5097746;28;20112;-81
2024/01/22 02:34:22;;;;;;;3.67;1.25;;;;;;;-144.05;70.33;56965.66;5094498;28;20043;-79
2024/01/22 02:36:48;;;;;;;1.95;1.20;;;;;;;-144.05;70.40;56976.28;5097373;28;20040;-80
2024/01/22 02:39:15;;;;;;;2.58;1.23;;;;;;;-144.05;70.36;56969.91;5104919;28;20032;-79
2024/01/22 02:41:41;;;;;;;2.42;1.27;;;;;;;-144.05;70.30;56950.78;5116511;27;20032;-79
2024/01/22 02:44:08;;;;;;;3.42;1.20;;;;;;;-144.05;70.19;56959.28;5098843;28;20024;-77
2024/01/22 02:46:34;;;;;;;3.80;1.25;;;;;;;-144.05;70.15;56938.03;5098496;28;20036;-78
2024/01/22 02:49:00;;;;;;;1.80;1.02;;;;;;;-144.05;70.03;56959.28;5096626;28;20102;-79
2024/01/22 02:51:26;;;;;;;2.28;1.33;;;;;;;-144.05;69.94;56978.41;5099001;28;20606;-77
2024/01/22 02:53:53;;;;;;;3.05;1.17;;;9.40;99.90;;;-144.05;69.16;56961.41;5094248;28;20388;-77
2024/01/22 02:56:22;;;;;;;3.13;1.35;;;8.90;99.90;;;-144.05;69.28;56959.28;5097580;28;20106;-79
2024/01/22 02:58:48;;;;;;;5.13;1.73;;;;;;;-144.05;69.08;56959.28;5112810;28;20053;-79
2024/01/22 03:01:14;;;;;;;2.15;1.05;;;;;;;-144.05;68.83;56980.53;5097301;28;20023;-78
2024/01/22 03:03:41;;;;;;;3.17;1.10;;;;;;;-144.05;69.09;56948.66;5107158;28;20027;-78
2024/01/22 03:06:07;;;;;;;3.42;1.15;;;;;;;-144.05;68.91;56938.03;5101303;28;20020;-78
2024/01/22 03:08:34;;;;;;;5.00;1.17;;;;;;;-144.05;68.53;56957.16;5096010;28;20089;-76
2024/01/22 03:11:00;;;;;;;1.27;1.10;;;;;;;-144.05;68.77;56984.78;5094837;28;20046;-77
2024/01/22 03:13:27;;;;;;;1.25;1.00;;;;;;;-144.05;69.18;56942.28;5095193;28;20059;-78
2024/01/22 03:15:53;;;;;;;5.35;1.58;;;;;;;-144.05;69.21;56963.53;5101767;28;20052;-77
2024/01/22 03:18:19;;;;;;;1.05;0.90;;;;;;;-144.05;68.42;56938.03;5095261;28;20056;-76
2024/01/22 03:20:45;;;;;;;3.13;0.90;;;;;;;-144.05;68.72;56929.53;5095676;28;20448;-77
2024/01/22 03:23:11;;;;;;;1.45;0.90;;;;;;;-144.05;68.95;56984.78;5094930;28;20031;-78
2024/01/22 03:25:38;;;;;;;3.40;1.27;;;;;;;-144.05;68.90;56965.66;5094943;28;20134;-78
2024/01/22 03:28:04;;;;;;;2.67;1.20;;;;;;;-144.05;69.14;56955.03;5095095;28;20483;-79
2024/01/22 03:30:31;;;;;;;3.05;1.00;;;;;;;-144.05;69.13;56942.28;5094379;28;20036;-75
2024/01/22 03:32:57;;;;;;;2.13;1.10;;;;;;;-144.05;68.69;56961.41;5109651;28;20086;-78
2024/01/22 03:35:23;;;;;;;3.75;1.08;;;;;;;-144.05;69.28;56961.41;5094915;28;20034;-76
2024/01/22 03:37:49;;;;;;;1.77;1.00;;;;;;;-144.05;69.95;56972.03;5093517;28;20024;-79
2024/01/22 03:40:16;;;;;;;2.33;1.40;;;;;;;-144.05;69.79;56946.53;5098240;28;20118;-79
2024/01/22 03:42:42;;;;;;;1.85;1.15;;;;;;;-144.05;70.09;56972.03;5095309;28;20467;-79
2024/01/22 03:45:08;;;;;;;2.55;0.82;;;;;;;-144.05;69.83;56965.66;5095666;28;20028;-78
2024/01/22 03:47:34;;;;;;;3.67;1.02;;;;;;;-144.05;69.97;56967.78;5094594;28;20401;-78
2024/01/22 03:50:03;;;;;;;3.17;1.05;;;;;;;-144.05;69.73;56957.16;5093968;28;20116;-78
2024/01/22 03:52:29;;;;;;;2.22;0.98;;;;;;;-144.05;69.22;56982.66;5093979;28;20053;-78
2024/01/22 03:54:55;;;;;;;1.52;0.93;;;;;;;-144.05;70.45;56989.00;5096630;28;20043;-78
2024/01/22 03:57:22;;;;;;;2.78;1.02;;;;;;;-144.05;69.25;56974.16;5096828;28;20396;-78
2024/01/22 03:59:48;;;;;;;2.88;1.35;;;;;;;-144.05;70.22;56955.03;5095126;28;20055;-80
2024/01/22 04:02:15;;;;;;;2.13;1.10;;;;;;;-144.05;72.31;56931.66;5099539;28;20063;-79
2024/01/22 04:04:42;;;;;;;4.53;1.13;;;9.10;99.90;;;-144.05;73.08;56948.66;5098396;28;20025;-79
2024/01/22 04:07:08;;;;;;;2.70;1.00;;;;;;;-144.05;74.69;56940.16;5095996;28;20501;-76
2024/01/22 04:09:36;;;;;;;2.53;1.20;;;;;;;-144.05;75.25;56959.28;5102055;28;20122;-78
2024/01/22 04:12:03;;;;;;;4.72;1.73;;;;;;;-144.05;77.11;56940.16;5102201;28;20023;-78
2024/01/22 04:14:30;;;;;;;2.15;1.00;;;;;;;-144.05;77.84;56980.53;5100279;28;20048;-81
2024/01/22 04:16:56;;;;;;;4.90;1.20;;;;;;;-144.05;78.78;56982.66;5099985;28;20028;-80
2024/01/22 04:19:22;;;;;;;5.10;1.63;;;;;;;-144.05;79.89;56969.91;5098541;28;20032;-82
2024/01/22 04:21:49;;;;;;;1.45;0.93;;;;;;;-144.05;79.80;56967.78;5098076;28;20032;-82
2024/01/22 04:24:15;;;;;;;1.90;1.20;;;;;;;-144.05;80.49;56976.28;5100121;28;20051;-78
2024/01/22 04:26:41;;;;;;;1.25;0.95;;;;;;;-144.05;80.64;56942.28;5099279;28;20028;-78
2024/01/22 04:29:08;;;;;;;4.40;1.35;;;;;;;-144.05;81.07;56976.28;5096919;28;20059;-80
2024/01/22 04:31:36;;;;;;;1.88;0.70;;;;;;;-144.05;81.87;56959.28;5092676;28;20500;-80
2024/01/22 04:34:02;;;;;;;3.03;1.40;;;;;;;-144.05;81.78;56976.28;5102476;28;20031;-81
2024/01/22 04:36:28;;;;;;;4.22;1.35;;;;;;;-144.05;82.27;56978.41;5094162;28;20489;-84
2024/01/22 04:38:54;;;;;;;2.10;1.10;;;;;;;-144.05;82.46;56959.28;5095803;28;20139;-82
2024/01/22 04:41:20;;;;;;;2.40;1.17;;;;;;;-144.05;82.69;56946.53;5096871;28;20040;-80
2024/01/22 04:43:47;;;;;;;4.10;1.42;;;;;;;-144.05;83.53;56993.25;5096787;28;20028;-83
2024/01/22 04:46:13;;;;;;;2.38;1.20;;;;;;;-144.05;83.27;56984.78;5098264;28;20508;-82
2024/01/22 04:48:39;;;;;;;2.92;1.00;;;;;;;-144.05;83.49;56959.28;5093319;28;20044;-82
2024/01/22 04:51:05;;;;;;;2.97;1.25;;;;;;;-144.05;84.19;56980.53;5091071;28;20028;-79
2024/01/22 04:53:31;;;;;;;1.52;1.25;;;;;;;-144.05;84.39;56974.16;5094139;28;20392;-77
2024/01/22 04:56:00;;;;;;;2.13;1.00;;;;;;;-144.05;84.46;56980.53;5092409;28;20020;-79
2024/01/22 04:58:26;;;;;;;2.63;1.20;;;;;;;-144.05;84.64;56967.78;5091807;28;20354;-84
2024/01/22 05:00:53;;;;;;;2.67;1.20;;;;;;;-144.05;84.47;56982.66;5093075;28;20048;-80
2024/01/22 05:03:19;;;;;;;3.35;0.90;;;;;;;-144.05;84.69;56963.53;5090853;28;20506;-81
2024/01/22 05:05:45;;;;;;;0.85;0.80;;;;;;;-144.05;85.14;56967.78;5092017;28;20036;-78
2024/01/22 05:08:11;;;;;;;3.85;0.90;;;;;;;-144.05;84.96;56967.78;5091396;28;20032;-81
2024/01/22 05:10:37;;;;;;;3.50;1.00;;;;;;;-144.05;85.17;56980.53;5093106;28;20032;-81
2024/01/22 05:13:04;;;;;;;1.73;1.02;;;;;;;-144.05;85.43;56938.03;5101474;28;20450;-80
2024/01/22 05:15:30;;;;;;;2.85;1.02;;;;;;;-144.05;85.41;56986.91;5110768;28;20024;-78
2024/01/22 05:17:56;;;;;;;4.40;1.02;;;;;;;-144.05;84.89;56961.41;5127269;28;20046;-75
2024/01/22 05:20:22;;;;;;;1.30;0.77;;;;;;;-144.05;85.31;57016.63;5100803;28;20058;-77
2024/01/22 05:22:49;;;;;;;5.43;0.77;;;;;;;-144.05;84.56;56976.28;5095148;28;20406;-80
2024/01/22 05:25:15;;;;;;;1.90;0.80;;;;;;;-144.05;85.07;56984.78;5094671;28;20032;-78
2024/01/22 05:27:45;;;;;;;3.65;1.00;;;7.20;99.90;;;-144.05;84.76;56986.91;5093229;28;20462;-79
2024/01/22 05:30:12;;;;;;;3.65;0.90;;;;;;;-144.05;84.71;56995.38;5091640;28;20027;-80
2024/01/22 05:32:38;;;;;;;2.40;1.25;;;;;;;-144.05;85.15;56991.13;5091656;28;20028;-81
2024/01/22 05:35:05;;;;;;;1.75;0.93;;;;;;;-144.05;85.41;56982.66;5091585;28;20044;-81
2024/01/22 05:37:31;;;;;;;4.03;0.80;;;;;;;-144.05;85.40;56965.66;5091396;28;20028;-77
2024/01/22 05:39:57;;;;;;;3.72;1.27;;;;;;;-144.05;87.13;56984.78;5092392;28;20031;-80
2024/01/22 05:42:24;;;;;;;1.02;0.80;;;;;;;-144.05;87.54;56999.63;5091767;28;20054;-79
2024/01/22 05:44:50;;;;;;;2.38;0.80;;;;;;;-144.05;87.19;56940.16;5092140;28;20099;-76
2024/01/22 05:47:16;;;;;;;4.38;0.85;;;;;;;-144.05;86.94;56961.41;5096901;28;20457;-79
2024/01/22 05:49:42;;;;;;;1.48;0.70;;;;;;;-144.05;88.03;56967.78;5090590;28;20027;-80
2024/01/22 05:52:08;;;;;;;1.80;0.98;;;;;;;-144.05;86.79;56982.66;5091088;28;20177;-78
2024/01/22 05:54:35;;;;;;;1.50;0.77;;;;;;;-144.05;87.44;56950.78;5090982;28;20059;-77
2024/01/22 05:57:01;;;;;;;1.30;0.70;;;;;;;-144.05;87.43;56980.53;5091771;28;20103;-78
2024/01/22 05:59:27;;;;;;;1.33;0.90;;;;;;;-144.05;87.10;56957.16;5096838;28;20024;-78
2024/01/22 06:01:55;;;;;;;2.13;0.88;;;;;;;-144.05;86.80;56938.03;5092263;28;20107;-79
2024/01/22 06:04:22;;;;;;;2.15;0.80;;;;;;;-144.05;86.65;56963.53;5089424;28;20709;-79
2024/01/22 06:06:49;;;;;;;3.35;0.90;;;;;;;-144.05;87.28;56976.28;5089508;28;20027;-77
2024/01/22 06:09:16;;;;;;;5.50;1.00;;;;;;;-144.05;87.71;56963.53;5089950;28;20469;-79
2024/01/22 06:11:43;;;;;;;5.50;1.10;;;;;;;-144.05;86.85;56963.53;5091504;28;20107;-80
2024/01/22 06:14:09;;;;;;;1.23;0.73;;;;;;;-144.05;87.48;56978.41;5091244;28;20057;-77
2024/01/22 06:16:36;;;;;;;3.47;0.88;;;;;;;-144.05;87.35;56974.16;5091436;28;20073;-78
2024/01/22 06:19:02;;;;;;;1.50;0.90;;;;;;;-144.05;87.29;56969.91;5093556;28;20032;-78
2024/01/22 06:21:29;;;;;;;1.30;0.98;;;;;;;-144.05;87.17;56969.91;5092169;28;20383;-80
2024/01/22 06:23:55;;;;;;;2.47;0.82;;;;;;;-144.05;87.73;56957.16;5092666;28;20024;-80
2024/01/22 06:26:22;;;;;;;3.33;0.90;;;;;;;-144.05;87.53;56952.91;5102138;28;20511;-79
2024/01/22 06:28:48;;;;;;;1.00;0.73;;;;;;;-144.05;87.11;56989.00;5095146;28;20036;-78
2024/01/22 06:31:15;;;;;;;1.63;0.93;;;;;;;-144.05;86.59;56946.53;5093053;28;20065;-78
2024/01/22 06:33:42;;;;;;;1.92;0.82;;;;;;;-144.05;87.55;56999.63;5095685;28;20485;-77
2024/01/22 06:36:08;;;;;;;2.63;0.95;;;;;;;-144.05;87.88;56959.28;5099411;28;20028;-78
2024/01/22 06:38:35;;;;;;;2.45;0.90;;;;;;;-144.05;87.43;56980.53;5094939;28;20036;-75
2024/01/22 06:41:01;;;;;;;1.80;1.08;;;;;;;-144.05;87.55;56940.16;5094602;28;20032;-77
2024/01/22 06:43:27;;;;;;;2.90;0.80;;;;;;;-144.05;86.87;56982.66;5095397;28;20393;-78
2024/01/22 06:45:54;;;;;;;2.58;0.65;;;;;;;-144.05;86.97;56950.78;5095200;28;20024;-78
2024/01/22 06:48:20;;;;;;;3.13;1.00;;;;;;;-144.05;86.56;56963.53;5095564;28;20378;-78
2024/01/22 06:50:47;;;;;;;1.88;0.60;;;;;;;-144.05;86.49;56972.03;5095945;28;20093;-79
2024/01/22 06:53:13;;;;;;;3.65;0.90;;;;;;;-144.05;86.55;56965.66;5094891;28;20071;-76
2024/01/22 06:55:39;;;;;;;0.98;0.77;;;;;;;-144.05;86.42;56974.16;5096159;28;20082;-78
2024/01/22 06:58:06;;;;;;;1.77;0.70;;;;;;;-144.05;86.75;56974.16;5103113;28;20020;-77
2024/01/22 07:00:33;;;;;;;0.85;0.60;;;;;;;-144.05;87.17;56950.78;5094251;28;20067;-78
2024/01/22 07:02:59;;;;;;;2.25;0.65;;;;;;;-144.05;87.62;56952.91;5097612;28;20465;-79
2024/01/22 07:05:26;;;;;;;1.25;0.75;;;;;;;-144.05;87.02;56965.66;5099109;28;20039;-81
2024/01/22 07:07:53;;;;;;;1.52;0.70;;;;;;;-144.05;87.13;56978.41;5100101;28;20057;-81
2024/01/22 07:10:21;;;;;;;2.97;0.80;;;;;;;-144.05;87.13;56942.28;5100995;28;20028;-82
2024/01/22 07:12:47;;;;;;;1.90;0.80;;;;;;;-144.05;87.18;56967.78;5119978;28;20028;-80
2024/01/22 07:15:14;;;;;;;2.65;1.38;;;;;;;-144.05;87.89;56957.16;5110097;28;20044;-80
2024/01/22 07:17:40;;;;;;;1.25;0.60;;;;;;;-144.05;87.88;56976.28;5108408;28;20028;-79
2024/01/22 07:20:08;;;;;;;1.90;0.75;;;7.80;99.90;;;-144.05;88.56;56948.66;5122757;28;20038;-80
2024/01/22 07:22:36;;;;;;;1.33;0.80;;;;;;;-144.05;88.51;56967.78;5126824;28;20484;-77
2024/01/22 07:25:03;;;;;;;1.60;0.80;;;9.40;99.90;;;-144.05;89.09;56946.53;5099211;28;20042;-78
2024/01/22 07:27:30;;;;;;;2.45;0.70;;;;;;;-144.05;88.80;56984.78;5099648;28;20028;-77
2024/01/22 07:29:56;;;;;;;1.05;0.63;;;;;;;-144.05;88.19;56942.28;5108469;28;20028;-79
2024/01/22 07:32:23;;;;;;;1.95;0.60;;;9.00;99.90;;;-144.05;88.42;56940.16;5114608;28;20159;-78
2024/01/22 07:34:49;;;;;;;1.50;0.75;;;;;;;-144.05;89.08;56942.28;5114758;28;20055;-78
2024/01/22 07:37:15;;;;;;;2.53;0.88;;;;;;;-144.05;89.05;56959.28;5103192;28;20400;-78
2024/01/22 07:39:42;;;;;;;1.40;0.57;;;;;;;-144.05;89.26;56967.78;5100901;28;20100;-80
2024/01/22 07:42:08;;;;;;;2.75;0.80;;;;;;;-144.05;88.98;56963.53;5110945;28;20123;-78
2024/01/22 07:44:34;;;;;;;0.57;0.57;;;;;;;-144.05;89.98;56978.41;5100363;28;20024;-79
2024/01/22 07:47:01;;;;;;;1.40;0.70;;;;;;;-144.05;89.54;56933.78;5097101;28;20474;-79
2024/01/22 07:49:27;;;;;;;1.65;0.70;;;;;;;-144.05;88.98;56957.16;5095885;28;20496;-82
2024/01/22 07:51:53;;;;;;;1.38;0.75;;;;;;;-144.05;88.91;56957.16;5095038;28;20085;-79
2024/01/22 07:54:19;;;;;;;1.67;0.70;;;;;;;-144.05;88.56;56935.91;5095671;28;20024;-78
2024/01/22 07:56:47;;;;;;;1.27;0.73;;;;;;;-144.05;88.06;56972.03;5096738;28;20100;-79
2024/01/22 07:59:13;;;;;;;0.65;0.65;;;;;;;-144.05;87.55;56929.53;5098708;28;20089;-78
2024/01/22 08:01:39;;;;;;;3.15;0.70;;;;;;;-144.05;87.22;56961.41;5109826;28;20024;-78
2024/01/22 08:04:06;;;;;;;2.17;0.68;;;;;;;-144.05;86.57;56959.28;5104206;28;20035;-79
2024/01/22 08:06:32;;;;;;;1.60;0.50;;;;;;;-144.05;85.92;56952.91;5127521;28;20043;-81
2024/01/22 08:08:59;;;;;;;2.25;0.70;;;;;;;-144.05;84.56;56944.41;5108385;28;20134;-80
2024/01/22 08:11:25;;;;;;;1.05;0.60;;;;;;;-144.05;83.21;56976.28;5102984;28;20035;-79
2024/01/22 08:13:52;;;;;;;4.00;1.05;;;;;;;-144.05;82.12;56976.28;5109968;28;20028;-79
2024/01/22 08:16:18;;;;;;;1.83;0.55;;;;;;;-144.05;81.67;56940.16;5098923;28;20028;-79
2024/01/22 08:18:45;;;;;;;1.55;0.50;;;;;;;-144.05;81.19;56955.03;5097781;28;20035;-81
2024/01/22 08:21:11;;;;;;;1.30;0.50;;;;;;;-144.05;81.06;56959.28;5108571;28;20023;-78
2024/01/22 08:23:37;;;;;;;1.45;0.50;;;;;;;-144.05;80.62;56957.16;5117292;28;20054;-78
2024/01/22 08:26:03;;;;;;;1.13;0.50;;;;;;;-144.05;79.93;56959.28;5098435;28;20036;-81
2024/01/22 08:28:30;;;;;;;1.20;0.50;;;;;;;-144.05;79.74;56950.78;5096059;28;20073;-78
2024/01/22 08:30:56;;;;;;;0.50;0.40;;;;;;;-144.05;80.10;56969.91;5100093;28;20302;-77
2024/01/22 08:33:22;;;;;;;0.90;0.50;;;;;;;-144.05;79.95;56972.03;5111675;28;20170;-76
2024/01/22 08:35:49;;;;;;;1.33;0.57;;;;;;;-144.05;79.67;56957.16;5097784;28;20121;-78
2024/01/22 08:38:15;;;;;;;0.63;0.32;;;;;;;-144.05;79.31;56980.53;5095412;28;20119;-78
2024/01/22 08:40:41;;;;;;;2.25;0.82;;;;;;;-144.05;79.17;56959.28;5098375;28;20023;-80
2024/01/22 08:43:08;;;;;;;1.90;0.65;;;;;;;-144.05;78.89;56978.41;5104383;28;20108;-80
2024/01/22 08:45:35;;;;;;;1.90;0.52;;;;;;;-144.05;79.15;56967.78;5107268;28;20036;-78
2024/01/22 08:48:01;;;;;;;3.08;0.93;;;;;;;-144.05;79.92;56948.66;5105072;28;20024;-79
2024/01/22 08:50:28;;;;;;;4.60;0.73;;;;;;;-144.05;80.61;56957.16;5105402;28;20032;-80
2024/01/22 08:52:55;;;;;;;1.15;0.40;;;11.30;99.90;;;-144.05;80.12;56961.41;5103971;28;20142;-79
2024/01/22 08:55:23;;;;;;;2.53;0.63;;;;;;;-144.05;79.50;56955.03;5104050;28;20099;-77
2024/01/22 08:57:49;;;;;;;0.88;0.50;;;;;;;-144.05;79.66;56935.91;5103654;28;20020;-79
2024/01/22 09:00:16;;;;;;;2.58;0.50;;;12.10;99.90;;;-144.05;79.72;56957.16;5107208;28;20028;-78
2024/01/22 09:02:43;;;;;;;0.82;0.57;;;11.40;99.90;;;-144.05;80.15;56967.78;5097045;28;20028;-78
2024/01/22 09:05:13;;;;;;;0.90;0.70;;;10.90;99.90;;;-144.05;79.64;56938.03;5097228;28;20039;-80
2024/01/22 09:07:40;;;;;;;1.10;0.65;;;;;;;-144.05;79.43;56959.28;5113739;28;20559;-77
2024/01/22 09:10:07;;;;;;;1.38;0.57;;;12.20;99.90;;;-144.05;78.81;56963.53;5097494;28;20028;-80
2024/01/22 09:12:37;;;;;;;1.05;0.60;;;11.10;99.90;;;-144.05;78.32;56944.41;5098492;28;20028;-78
2024/01/22 09:15:05;;;;;;;2.35;0.73;;;12.10;99.90;;;-144.05;77.49;56955.03;5108580;28;20020;-77
2024/01/22 09:17:32;;;;;;;1.83;0.70;;;;;;;-144.05;77.49;56959.28;5102029;28;20043;-78
2024/01/22 09:19:59;;;;;;;2.13;0.60;;;;;;;-144.05;77.16;56955.03;5098831;28;20028;-79
2024/01/22 09:22:26;;;;;;;2.40;0.77;;;11.50;99.90;;;-144.05;76.74;56950.78;5104559;28;20031;-78
2024/01/22 09:24:52;;;;;;;4.78;0.73;;;;;;;-144.05;77.04;56959.28;5097987;28;20457;-79
2024/01/22 09:27:18;;;;;;;2.90;0.73;;;;;;;-144.05;76.51;56959.28;5105208;28;20104;-77
2024/01/22 09:29:45;;;;;;;4.65;0.77;;;;;;;-144.05;75.92;56967.78;5103138;28;20028;-78
2024/01/22 09:32:11;;;;;;;5.07;0.70;;;;;;;-144.05;76.18;56938.03;5094062;28;20077;-80
2024/01/22 09:34:39;;;;;;;2.38;0.70;;;11.40;99.90;;;-144.05;76.89;56972.03;5104704;28;20020;-79
2024/01/22 09:37:08;;;;;;;1.92;0.70;;;11.40;99.90;;;-144.05;78.18;56965.66;5103859;28;20030;-79
2024/01/22 09:39:34;;;;;;;1.73;0.50;;;;;;;-144.05;78.81;56963.53;5095837;28;20282;-81
2024/01/22 09:42:02;;;;;;;1.38;0.57;;;;;;;-144.05;79.18;56967.78;5095930;28;20020;-78
2024/01/22 09:44:29;;;;;;;1.35;0.70;;;;;;;-144.05;78.90;56916.81;5094116;28;20119;-78
2024/01/22 09:46:57;;;;;;;2.25;0.70;;;11.10;99.90;;;-144.05;77.87;56942.28;5095825;28;20103;-80
2024/01/22 09:49:23;;;;;;;3.33;0.60;;;;;;;-144.05;77.40;56942.28;5096458;28;20119;-79
2024/01/22 09:51:51;;;;;;;5.15;0.93;;;11.30;99.90;;;-144.05;76.69;56952.91;5095088;28;20027;-79
2024/01/22 09:54:19;;;;;;;2.58;0.80;;;12.20;99.90;;;-144.05;75.99;56957.16;5093887;28;20027;-79
2024/01/22 09:56:57;;;;;;;4.63;1.58;;;12.10;99.90;;;-144.05;75.35;56959.28;5095482;28;20055;-78
2024/01/22 09:59:28;;;;;;;5.78;0.90;;;12.20;99.90;;;-144.05;74.96;56959.28;5094826;28;20023;-80
2024/01/22 10:01:55;;;;;;;2.92;0.95;;;11.70;99.90;;;-144.05;74.51;56933.78;5096698;28;20045;-78
2024/01/22 10:04:25;;;;;;;3.15;1.33;;;;;;;-144.05;74.57;56957.16;5094623;28;20047;-78
2024/01/22 10:06:52;;;;;;;5.22;1.27;;;;;;;-144.05;73.55;56952.91;5095640;28;20024;-80
2024/01/22 10:09:19;;;;;;;4.50;1.23;;;;;;;-144.05;72.77;56961.41;5096812;28;20024;-79
2024/01/22 10:11:46;;;;;;;3.22;0.93;;;12.30;99.90;;;-144.05;72.48;56952.91;5097774;28;20056;-80
2024/01/22 10:14:12;;;;;;;3.53;1.20;;;;;;;-144.05;72.27;56955.03;5103967;28;20025;-77
2024/01/22 10:16:39;;;;;;;1.35;1.00;;;;;;;-144.05;72.07;56914.69;5097288;28;20024;-79
2024/01/22 10:19:09;;;;;;;4.55;1.17;;;12.00;99.90;;;-144.05;71.70;56950.78;5100768;28;20039;-78
2024/01/22 10:21:38;;;;;;;4.07;1.08;;;8.70;99.90;;;-144.05;71.70;56957.16;5099419;28;20032;-78
2024/01/22 10:24:09;;;;;;;6.53;1.25;;;8.70;99.90;;;-144.05;71.43;56961.41;5103600;28;20128;-80
2024/01/22 10:26:36;;;;;;;9.07;1.60;;;8.20;99.90;;;-144.05;71.01;56927.41;5096405;28;20115;-79
2024/01/22 10:29:19;;;;;;;4.07;1.70;;;12.10;99.90;;;-144.05;71.07;56938.03;5094483;28;20032;-78
2024/01/22 10:32:00;;;;;;;6.28;1.20;;;12.20;99.90;;;-144.05;70.81;56931.66;5096176;28;20027;-79
2024/01/22 10:34:53;;;;;;;10.02;2.00;;;8.50;99.90;;;-144.05;70.65;56923.19;5102905;28;20031;-80
2024/01/22 10:37:19;;;;;;;7.97;1.27;;;7.90;99.90;;;-144.05;70.58;56938.03;5114253;28;20100;-79
2024/01/22 10:40:03;;;;;;;7.45;1.45;;;14.80;99.90;;;-144.05;71.05;56940.16;5112494;28;20426;-77
2024/01/22 10:42:29;;;;;;;5.55;1.10;;;;;;;-144.05;70.68;56955.03;5106296;28;20042;-78
2024/01/22 10:44:57;;;;;;;10.77;1.52;;;12.40;99.90;;;-144.05;70.46;56946.53;5099518;28;20016;-77
2024/01/22 10:47:24;;;;;;;5.75;1.35;;;12.50;99.90;;;-144.05;69.89;56963.53;5108408;28;20020;-79
2024/01/22 10:49:53;;;;;;;7.45;1.38;;;12.40;99.90;;;-144.05;69.80;56918.94;5113364;28;20016;-80
2024/01/22 10:52:20;;;;;;;4.97;1.75;;;9.00;99.90;;;-144.05;69.75;56957.16;5100777;28;20024;-78
2024/01/22 10:54:47;;;;;;;7.40;1.90;;;12.50;99.90;;;-144.05;69.93;56974.16;5131329;28;20056;-77
2024/01/22 10:57:39;;;;;;;5.00;1.52;;;12.80;99.90;;;-144.05;69.56;56942.28;5122852;28;20091;-78
2024/01/22 11:00:12;;;;;;;5.72;1.50;;;12.60;99.90;;;-144.05;69.78;56963.53;5110615;28;20036;-77
2024/01/22 11:02:48;;;;;;;5.70;1.60;;;12.60;99.90;;;-144.05;69.21;56967.78;5102155;28;20365;-80